Castleford, Idaho
Current Conditions -  °F | °C
As of 8:53 AM on Monday 26 Jan 2015 (Local Time) from KTWF Reporting Station
Moderate Fog Moderate Fog  
Wind Chill: 21°   Ceiling: 200
Heat Index: 31°   Visibility: 0.25mi
Dew Point: 28°   Wind: 14mph
Humidity: 89%   Direction: 90°E
Pressure: 30.33"   Gusts: NA
Location:  42.52°N, 114.87°W
Report Text: KTWF 261553Z 09012KT 1/4SM FZFG VV002 M01/M02 A3033 RMK AO2 SLP276 I1002 T10061022
Loading
Personal Weather Stations






























Interactive Weather Map New forecast layout! Learn more

10-Day Weather Forecast

Advertisements
Track Severe Weather on mobile